Time,TemperatureF,DewpointF,PressureIn,WindDirection,WindDirectionDegrees,WindSpeedMPH,WindSpeedGustMPH,Humidity,HourlyPrecipIn,Conditions,Clouds,dailyrainin,SolarRadiationWatts/m^2,SoftwareType,DateUTC
2013-08-13 00:01:00,70.0,45.0,-100.00,SSE,148,0.0,0.0,41,0.00,,,0.00,0.000000,,2013-08-13 07:01:00,
2013-08-13 00:11:00,70.0,45.0,-100.00,SSE,148,0.0,0.0,41,0.00,,,0.00,0.000000,,2013-08-13 07:11:00,
2013-08-13 00:21:00,70.0,45.0,-100.00,SSE,148,0.0,0.0,41,0.00,,,0.00,0.000000,,2013-08-13 07:21:00,
2013-08-13 00:52:00,69.0,46.0,-100.00,SE,146,0.0,0.0,44,0.00,,,0.00,0.000000,,2013-08-13 07:52:00,
2013-08-13 01:02:00,69.0,46.0,-100.00,SE,146,0.0,0.0,44,0.00,,,0.00,0.000000,,2013-08-13 08:02:00,
2013-08-13 01:11:00,69.0,46.0,-100.00,SE,146,0.0,0.0,44,0.00,,,0.00,0.000000,,2013-08-13 08:11:00,
2013-08-13 01:21:00,69.0,46.0,-100.00,SE,146,0.0,0.0,44,0.00,,,0.00,0.000000,,2013-08-13 08:21:00,
2013-08-13 02:21:00,66.0,45.0,-100.00,SE,139,0.0,2.0,46,0.00,,,0.00,0.000000,,2013-08-13 09:21:00,
2013-08-13 02:53:00,67.0,46.0,-100.00,SE,139,0.0,2.0,46,0.00,,,0.00,0.000000,,2013-08-13 09:53:00,
2013-08-13 03:03:00,67.0,46.0,-100.00,SE,139,0.0,2.0,46,0.00,,,0.00,0.000000,,2013-08-13 10:03:00,
2013-08-13 03:12:00,67.0,46.0,-100.00,SE,139,0.0,2.0,46,0.00,,,0.00,0.000000,,2013-08-13 10:12:00,
2013-08-13 03:23:00,67.0,46.0,-100.00,SE,139,0.0,2.0,46,0.00,,,0.00,0.000000,,2013-08-13 10:23:00,
2013-08-13 03:52:00,67.0,44.0,-100.00,SE,138,0.0,3.0,44,0.00,,,0.00,0.000000,,2013-08-13 10:52:00,
2013-08-13 04:02:00,67.0,44.0,-100.00,SE,138,0.0,3.0,44,0.00,,,0.00,0.000000,,2013-08-13 11:02:00,
2013-08-13 04:11:00,67.0,44.0,-100.00,SE,138,0.0,3.0,44,0.00,,,0.00,0.000000,,2013-08-13 11:11:00,
2013-08-13 04:22:00,67.0,44.0,-100.00,SE,138,0.0,3.0,44,0.00,,,0.00,0.000000,,2013-08-13 11:22:00,
2013-08-13 04:52:00,67.0,43.0,-100.00,SSE,168,0.0,3.0,42,0.00,,,0.00,0.000000,,2013-08-13 11:52:00,
2013-08-13 05:01:00,67.0,43.0,-100.00,SSE,168,0.0,3.0,42,0.00,,,0.00,0.000000,,2013-08-13 12:01:00,
2013-08-13 05:12:00,67.0,43.0,-100.00,SSE,168,0.0,3.0,42,0.00,,,0.00,0.000000,,2013-08-13 12:12:00,
2013-08-13 05:21:00,67.0,43.0,-100.00,SSE,168,0.0,3.0,42,0.00,,,0.00,0.000000,,2013-08-13 12:21:00,
2013-08-13 05:52:00,65.0,44.0,-100.00,SE,143,0.0,2.0,46,0.00,,,0.00,0.000000,,2013-08-13 12:52:00,
2013-08-13 06:01:00,65.0,44.0,-100.00,SE,143,0.0,2.0,46,0.00,,,0.00,0.000000,,2013-08-13 13:01:00,
2013-08-13 06:11:00,65.0,44.0,-100.00,SE,143,0.0,2.0,46,0.00,,,0.00,0.000000,,2013-08-13 13:11:00,
2013-08-13 06:21:00,65.0,44.0,-100.00,SE,143,0.0,2.0,46,0.00,,,0.00,0.000000,,2013-08-13 13:21:00,
2013-08-13 06:52:00,62.0,44.0,-100.00,ESE,110,0.0,2.0,52,0.00,,,0.00,0.000000,,2013-08-13 13:52:00,
2013-08-13 07:02:00,62.0,44.0,-100.00,ESE,110,0.0,2.0,52,0.00,,,0.00,0.000000,,2013-08-13 14:02:00,
2013-08-13 07:11:00,62.0,44.0,-100.00,ESE,110,0.0,2.0,52,0.00,,,0.00,0.000000,,2013-08-13 14:11:00,
2013-08-13 07:21:00,62.0,44.0,-100.00,ESE,110,0.0,2.0,52,0.00,,,0.00,0.000000,,2013-08-13 14:21:00,
2013-08-13 07:52:00,61.0,43.0,-100.00,ESE,121,0.0,2.0,52,0.00,,,0.00,11.000000,,2013-08-13 14:52:00,
2013-08-13 08:02:00,61.0,43.0,-100.00,ESE,121,0.0,2.0,52,0.00,,,0.00,11.000000,,2013-08-13 15:02:00,
2013-08-13 08:11:00,61.0,43.0,-100.00,ESE,121,0.0,2.0,52,0.00,,,0.00,11.000000,,2013-08-13 15:11:00,
2013-08-13 08:21:00,61.0,43.0,-100.00,ESE,121,0.0,2.0,52,0.00,,,0.00,11.000000,,2013-08-13 15:21:00,
2013-08-13 08:54:00,73.0,46.0,-100.00,West,264,0.0,0.0,38,0.00,,,0.00,214.000000,,2013-08-13 15:54:00,
2013-08-13 09:03:00,73.0,46.0,-100.00,West,264,0.0,0.0,38,0.00,,,0.00,214.000000,,2013-08-13 16:03:00,
2013-08-13 09:13:00,73.0,46.0,-100.00,West,264,0.0,0.0,38,0.00,,,0.00,214.000000,,2013-08-13 16:13:00,
2013-08-13 09:23:00,73.0,46.0,-100.00,West,264,0.0,0.0,38,0.00,,,0.00,214.000000,,2013-08-13 16:23:00,
2013-08-13 09:25:00,76.0,43.0,-100.00,WSW,255,0.0,0.0,31,0.00,,,0.00,181.000000,,2013-08-13 16:25:00,
2013-08-13 09:54:00,76.0,43.0,-100.00,WSW,255,0.0,0.0,31,0.00,,,0.00,181.000000,,2013-08-13 16:54:00,
2013-08-13 10:05:00,76.0,43.0,-100.00,WSW,255,0.0,0.0,31,0.00,,,0.00,181.000000,,2013-08-13 17:05:00,
2013-08-13 10:16:00,76.0,43.0,-100.00,WSW,255,0.0,0.0,31,0.00,,,0.00,181.000000,,2013-08-13 17:16:00,
2013-08-13 10:25:00,84.0,43.0,-100.00,WNW,291,0.0,5.0,24,0.00,,,0.00,526.000000,,2013-08-13 17:25:00,
2013-08-13 10:46:00,-999.0,-99.9,-100.00,WNW,291,0.0,5.0,-999,0.00,,,0.00,526.000000,,2013-08-13 17:46:00,
2013-08-13 10:56:00,84.0,43.0,-100.00,WNW,291,0.0,5.0,24,0.00,,,0.00,526.000000,,2013-08-13 17:56:00,
2013-08-13 11:05:00,84.0,43.0,-100.00,WNW,291,0.0,5.0,24,0.00,,,0.00,526.000000,,2013-08-13 18:05:00,
2013-08-13 11:15:00,84.0,43.0,-100.00,WNW,291,0.0,5.0,24,0.00,,,0.00,526.000000,,2013-08-13 18:15:00,
2013-08-13 11:56:00,88.0,43.0,-100.00,West,280,5.0,10.0,21,0.00,,,0.00,1011.000000,,2013-08-13 18:56:00,
2013-08-13 12:04:00,88.0,43.0,-100.00,West,280,5.0,10.0,21,0.00,,,0.00,1011.000000,,2013-08-13 19:04:00,
2013-08-13 12:14:00,88.0,43.0,-100.00,West,280,5.0,10.0,21,0.00,,,0.00,1011.000000,,2013-08-13 19:14:00,
2013-08-13 12:24:00,88.0,43.0,-100.00,West,280,5.0,10.0,21,0.00,,,0.00,1011.000000,,2013-08-13 19:24:00,
2013-08-13 12:55:00,93.0,43.0,-100.00,WSW,257,7.0,15.0,18,0.00,,,0.00,1161.000000,,2013-08-13 19:55:00,
2013-08-13 13:04:00,93.0,43.0,-100.00,WSW,257,7.0,15.0,18,0.00,,,0.00,1161.000000,,2013-08-13 20:04:00,
2013-08-13 13:15:00,93.0,43.0,-100.00,WSW,257,7.0,15.0,18,0.00,,,0.00,1161.000000,,2013-08-13 20:15:00,
2013-08-13 13:22:00,93.0,43.0,-100.00,WSW,257,7.0,15.0,18,0.00,,,0.00,1161.000000,,2013-08-13 20:22:00,
2013-08-13 13:53:00,93.0,42.0,-100.00,WSW,247,8.0,17.0,17,0.00,,,0.00,1230.000000,,2013-08-13 20:53:00,
2013-08-13 14:01:00,93.0,42.0,-100.00,WSW,247,8.0,17.0,17,0.00,,,0.00,1230.000000,,2013-08-13 21:01:00,
2013-08-13 14:11:00,93.0,42.0,-100.00,WSW,247,8.0,17.0,17,0.00,,,0.00,1230.000000,,2013-08-13 21:11:00,
2013-08-13 14:24:00,93.0,42.0,-100.00,WSW,247,8.0,17.0,17,0.00,,,0.00,1230.000000,,2013-08-13 21:24:00,
2013-08-13 14:54:00,96.0,43.0,-100.00,SW,231,7.0,16.0,16,0.00,,,0.00,1218.000000,,2013-08-13 21:54:00,
2013-08-13 15:03:00,96.0,43.0,-100.00,SW,231,7.0,16.0,16,0.00,,,0.00,1218.000000,,2013-08-13 22:03:00,
2013-08-13 15:13:00,96.0,43.0,-100.00,SW,231,7.0,16.0,16,0.00,,,0.00,1218.000000,,2013-08-13 22:13:00,
2013-08-13 15:22:00,96.0,43.0,-100.00,SW,231,7.0,16.0,16,0.00,,,0.00,1218.000000,,2013-08-13 22:22:00,
2013-08-13 15:25:00,96.0,41.0,-100.00,WSW,245,7.0,17.0,15,0.00,,,0.00,1139.000000,,2013-08-13 22:25:00,
2013-08-13 15:57:00,96.0,41.0,-100.00,WSW,245,7.0,17.0,15,0.00,,,0.00,1139.000000,,2013-08-13 22:57:00,
2013-08-13 16:03:00,96.0,41.0,-100.00,WSW,245,7.0,17.0,15,0.00,,,0.00,1139.000000,,2013-08-13 23:03:00,
2013-08-13 16:13:00,96.0,41.0,-100.00,WSW,245,7.0,17.0,15,0.00,,,0.00,1139.000000,,2013-08-13 23:13:00,
2013-08-13 16:57:00,95.0,40.0,-100.00,WSW,242,6.0,16.0,15,0.00,,,-99.99,985.000000,,2013-08-13 23:57:00,
2013-08-13 17:03:00,95.0,40.0,-100.00,WSW,242,6.0,16.0,15,0.00,,,-99.99,985.000000,,2013-08-14 00:03:00,
2013-08-13 17:11:00,95.0,40.0,-100.00,WSW,242,6.0,16.0,15,0.00,,,-99.99,985.000000,,2013-08-14 00:11:00,
2013-08-13 17:21:00,95.0,40.0,-100.00,WSW,242,6.0,16.0,15,0.00,,,-99.99,985.000000,,2013-08-14 00:21:00,
2013-08-13 17:52:00,97.0,40.0,-100.00,WSW,237,6.0,15.0,14,0.00,,,0.00,777.000000,,2013-08-14 00:52:00,
2013-08-13 18:01:00,97.0,40.0,-100.00,WSW,237,6.0,15.0,14,0.00,,,0.00,777.000000,,2013-08-14 01:01:00,
2013-08-13 18:11:00,97.0,40.0,-100.00,WSW,237,6.0,15.0,14,0.00,,,0.00,777.000000,,2013-08-14 01:11:00,
2013-08-13 18:21:00,97.0,40.0,-100.00,WSW,237,6.0,15.0,14,0.00,,,0.00,777.000000,,2013-08-14 01:21:00,
2013-08-13 18:52:00,95.0,38.0,-100.00,SSW,209,4.0,15.0,14,0.00,,,0.00,530.000000,,2013-08-14 01:52:00,
2013-08-13 19:02:00,95.0,38.0,-100.00,SSW,209,4.0,15.0,14,0.00,,,0.00,530.000000,,2013-08-14 02:02:00,
2013-08-13 19:11:00,95.0,38.0,-100.00,SSW,209,4.0,15.0,14,0.00,,,0.00,530.000000,,2013-08-14 02:11:00,
2013-08-13 19:21:00,95.0,38.0,-100.00,SSW,209,4.0,15.0,14,0.00,,,0.00,530.000000,,2013-08-14 02:21:00,
2013-08-13 19:52:00,92.0,39.0,-100.00,WSW,249,7.0,13.0,16,0.00,,,0.00,265.000000,,2013-08-14 02:52:00,
2013-08-13 20:01:00,92.0,39.0,-100.00,WSW,249,7.0,13.0,16,0.00,,,0.00,265.000000,,2013-08-14 03:01:00,
2013-08-13 20:11:00,92.0,39.0,-100.00,WSW,249,7.0,13.0,16,0.00,,,0.00,265.000000,,2013-08-14 03:11:00,
2013-08-13 20:22:00,92.0,39.0,-100.00,WSW,249,7.0,13.0,16,0.00,,,0.00,265.000000,,2013-08-14 03:22:00,
2013-08-13 20:53:00,82.0,41.0,-100.00,SSE,166,0.0,13.0,23,0.00,,,0.00,28.000000,,2013-08-14 03:53:00,
2013-08-13 21:03:00,82.0,41.0,-100.00,SSE,166,0.0,13.0,23,0.00,,,0.00,28.000000,,2013-08-14 04:03:00,
2013-08-13 21:12:00,82.0,41.0,-100.00,SSE,166,0.0,13.0,23,0.00,,,0.00,28.000000,,2013-08-14 04:12:00,
2013-08-13 23:52:00,72.0,40.0,-100.00,SE,138,0.0,3.0,31,0.00,,,0.00,0.000000,,2013-08-14 06:52:00,